createdAt,value
2023-01-11T00:00:25.219Z,4.20
2023-01-11T00:02:56.733Z,4.25
2023-01-11T00:05:23.429Z,3.80
2023-01-11T00:07:49.884Z,3.58
2023-01-11T00:10:16.593Z,3.10
2023-01-11T00:12:43.349Z,3.30
2023-01-11T00:15:10.587Z,3.10
2023-01-11T00:17:37.063Z,3.03
2023-01-11T00:20:03.731Z,2.95
2023-01-11T00:22:30.199Z,2.83
2023-01-11T00:24:56.632Z,2.65
2023-01-11T00:27:23.100Z,2.75
2023-01-11T00:29:49.552Z,2.70
2023-01-11T00:32:16.012Z,2.78
2023-01-11T00:34:42.494Z,2.88
2023-01-11T00:37:10.606Z,2.38
2023-01-11T00:39:37.073Z,2.53
2023-01-11T00:42:22.012Z,2.22
2023-01-11T00:45:06.949Z,2.40
2023-01-11T00:47:51.988Z,2.60
2023-01-11T00:50:18.504Z,2.25
2023-01-11T00:52:44.968Z,2.63
2023-01-11T00:55:11.426Z,2.13
2023-01-11T00:57:38.203Z,2.42
2023-01-11T01:00:05.263Z,1.90
2023-01-11T01:02:32.936Z,2.20
2023-01-11T01:04:59.886Z,1.98
2023-01-11T01:07:26.393Z,2.08
2023-01-11T01:09:52.857Z,2.00
2023-01-11T01:12:39.327Z,1.95
2023-01-11T01:15:06.080Z,1.77
2023-01-11T01:17:32.540Z,1.90
2023-01-11T01:19:58.984Z,2.00
2023-01-11T01:22:25.441Z,1.48
2023-01-11T01:24:51.899Z,1.67
2023-01-11T01:27:19.972Z,1.70
2023-01-11T01:29:46.472Z,1.52
2023-01-11T01:32:12.934Z,1.38
2023-01-11T01:34:39.398Z,1.80
2023-01-11T01:37:06.448Z,1.42
2023-01-11T01:39:32.932Z,1.55
2023-01-11T01:41:59.415Z,1.45
2023-01-11T01:44:50.513Z,1.35
2023-01-11T01:47:16.989Z,1.30
2023-01-11T01:49:43.484Z,1.50
2023-01-11T01:52:09.986Z,1.40
2023-01-11T01:54:37.431Z,1.40
2023-01-11T01:57:07.207Z,1.40
2023-01-11T01:59:33.683Z,1.70
2023-01-11T02:02:00.235Z,1.40
2023-01-11T02:04:40.365Z,1.30
2023-01-11T02:07:12.072Z,1.40
2023-01-11T02:10:03.886Z,1.00
2023-01-11T02:12:32.110Z,1.02
2023-01-11T02:15:00.386Z,1.30
2023-01-11T02:17:26.841Z,1.35
2023-01-11T02:20:21.561Z,0.90
2023-01-11T02:25:44.106Z,1.33
2023-01-11T02:28:26.635Z,0.90
2023-01-11T02:31:05.185Z,1.10
2023-01-11T02:33:40.661Z,0.88
2023-01-11T02:36:09.389Z,0.90
2023-01-11T02:38:46.349Z,0.70
2023-01-11T02:41:25.351Z,1.00
2023-01-11T02:44:15.896Z,1.00
2023-01-11T02:46:45.309Z,0.70
2023-01-11T02:49:16.835Z,1.00
2023-01-11T02:51:47.450Z,0.90
2023-01-11T02:54:13.949Z,0.73
2023-01-11T02:56:41.935Z,0.70
2023-01-11T02:59:10.426Z,0.80
2023-01-11T03:01:46.999Z,0.75
2023-01-11T03:04:23.347Z,0.70
2023-01-11T03:06:49.835Z,0.63
2023-01-11T03:09:20.216Z,0.75
2023-01-11T03:12:17.427Z,0.70
2023-01-11T03:15:14.786Z,0.57
2023-01-11T03:17:54.575Z,0.70
2023-01-11T03:20:24.167Z,0.60
2023-01-11T03:23:15.616Z,0.60
2023-01-11T03:26:07.589Z,0.50
2023-01-11T03:28:40.188Z,0.60
2023-01-11T03:31:18.210Z,0.63
2023-01-11T03:34:19.096Z,0.45
2023-01-11T03:36:49.837Z,0.63
2023-01-11T03:39:22.246Z,0.50
2023-01-11T03:41:48.749Z,0.50
2023-01-11T03:44:15.247Z,0.60
2023-01-11T03:46:45.220Z,0.43
2023-01-11T03:49:15.654Z,0.50
2023-01-11T03:51:43.514Z,0.50
2023-01-11T03:54:13.575Z,0.50
2023-01-11T03:56:48.788Z,0.45
2023-01-11T03:59:15.265Z,0.40
2023-01-11T04:01:41.714Z,0.47
2023-01-11T04:04:08.201Z,0.43
2023-01-11T04:06:35.752Z,0.30
2023-01-11T04:09:02.235Z,0.30
2023-01-11T04:11:28.692Z,0.50
2023-01-11T04:13:55.208Z,0.57
2023-01-11T04:16:21.752Z,0.55
2023-01-11T04:18:48.229Z,0.40
2023-01-11T04:21:14.686Z,0.50
2023-01-11T04:23:41.197Z,0.50
2023-01-11T04:26:07.663Z,0.40
2023-01-11T04:28:34.384Z,0.38
2023-01-11T04:31:00.830Z,0.32
2023-01-11T04:33:27.301Z,0.40
2023-01-11T04:35:53.800Z,0.35
2023-01-11T04:38:20.354Z,0.30
2023-01-11T04:40:47.806Z,0.40
2023-01-11T04:43:14.263Z,0.30
2023-01-11T04:45:40.828Z,0.40
2023-01-11T04:48:07.340Z,0.20
2023-01-11T04:50:33.885Z,0.28
2023-01-11T04:53:00.401Z,0.30
2023-01-11T04:55:26.851Z,0.30
2023-01-11T04:57:53.288Z,0.28
2023-01-11T05:00:19.958Z,0.30
2023-01-11T05:02:46.427Z,0.30
2023-01-11T05:05:12.972Z,0.30
2023-01-11T05:07:39.587Z,0.30
2023-01-11T05:10:06.547Z,0.22
2023-01-11T05:12:32.991Z,0.28
2023-01-11T05:14:59.467Z,0.30
2023-01-11T05:17:25.931Z,0.52
2023-01-11T05:19:52.416Z,0.30
2023-01-11T05:22:18.858Z,0.30
2023-01-11T05:24:45.310Z,0.30
2023-01-11T05:27:12.155Z,0.30
2023-01-11T05:29:38.637Z,0.30
2023-01-11T05:32:05.342Z,0.20
2023-01-11T05:34:31.828Z,0.20
2023-01-11T05:36:58.278Z,0.20
2023-01-11T05:39:24.784Z,0.28
2023-01-11T05:41:51.223Z,0.20
2023-01-11T05:44:36.729Z,0.30
2023-01-11T05:47:04.179Z,0.30
2023-01-11T05:49:30.667Z,0.20
2023-01-11T05:51:57.149Z,0.20
2023-01-11T05:54:23.626Z,0.20
2023-01-11T05:56:50.075Z,0.25
2023-01-11T05:59:16.557Z,0.20
2023-01-11T06:01:43.073Z,0.17
2023-01-11T06:04:09.632Z,0.20
2023-01-11T06:06:36.182Z,0.17
2023-01-11T06:09:02.702Z,0.32
2023-01-11T06:11:29.177Z,0.20
2023-01-11T06:13:55.686Z,0.20
2023-01-11T06:16:22.401Z,0.30
2023-01-11T06:18:50.308Z,0.10
2023-01-11T06:21:16.830Z,0.20
2023-01-11T06:23:45.177Z,0.30
2023-01-11T06:26:13.154Z,0.25
2023-01-11T06:28:39.727Z,0.10
2023-01-11T06:31:06.313Z,0.17
2023-01-11T06:33:32.922Z,0.20
2023-01-11T06:35:59.425Z,0.20
2023-01-11T06:38:25.954Z,0.10
2023-01-11T06:40:56.798Z,0.25
2023-01-11T06:43:23.680Z,0.20
2023-01-11T06:45:50.214Z,0.20
2023-01-11T06:48:17.436Z,0.28
2023-01-11T06:50:47.032Z,0.20
2023-01-11T06:53:13.494Z,0.35
2023-01-11T06:55:39.948Z,0.20
2023-01-11T06:58:06.400Z,0.22
2023-01-11T07:00:33.243Z,0.17
2023-01-11T07:03:04.255Z,0.15
2023-01-11T07:05:32.615Z,0.10
2023-01-11T07:07:59.162Z,0.20
2023-01-11T07:10:25.608Z,0.20
2023-01-11T07:12:53.389Z,0.25
2023-01-11T07:15:19.909Z,0.10
2023-01-11T07:17:47.735Z,0.15
2023-01-11T07:20:14.241Z,0.32
2023-01-11T07:22:40.707Z,0.15
2023-01-11T07:25:07.391Z,0.20
2023-01-11T07:27:33.852Z,0.20
2023-01-11T07:30:00.312Z,0.20
2023-01-11T07:32:28.444Z,0.10
2023-01-11T07:34:55.476Z,0.10
2023-01-11T07:37:28.145Z,0.10
2023-01-11T07:39:55.659Z,0.28
2023-01-11T07:42:40.408Z,0.10
2023-01-11T07:45:07.436Z,0.00
2023-01-11T07:47:33.897Z,0.00
2023-01-11T07:50:00.676Z,0.08
2023-01-11T07:52:27.140Z,0.13
2023-01-11T07:54:53.629Z,0.10
2023-01-11T07:57:20.131Z,0.10
2023-01-11T07:59:46.614Z,0.00
2023-01-11T08:02:13.070Z,0.10
2023-01-11T08:04:39.579Z,0.10
2023-01-11T08:07:06.038Z,0.10
2023-01-11T08:09:32.502Z,0.10
2023-01-11T08:12:17.275Z,0.10
2023-01-11T08:14:44.039Z,0.10
2023-01-11T08:17:14.837Z,0.10
2023-01-11T08:19:41.360Z,0.10
2023-01-11T08:22:07.870Z,0.08
2023-01-11T08:24:37.127Z,0.10
2023-01-11T08:27:03.747Z,0.10
2023-01-11T08:29:30.313Z,0.10
2023-01-11T08:31:57.116Z,0.17
2023-01-11T08:34:23.622Z,0.10
2023-01-11T08:36:50.076Z,0.32
2023-01-11T08:39:16.730Z,0.00
2023-01-11T08:41:43.452Z,0.08
2023-01-11T08:44:11.810Z,0.20
2023-01-11T08:46:38.708Z,0.10
2023-01-11T08:49:11.072Z,0.10
2023-01-11T08:51:39.073Z,0.20
2023-01-11T08:54:09.429Z,0.20
2023-01-11T08:56:36.942Z,0.10
2023-01-11T08:59:04.296Z,0.15
2023-01-11T09:01:43.914Z,0.20
2023-01-11T09:04:25.974Z,0.17
2023-01-11T09:06:53.060Z,0.20
2023-01-11T09:09:19.528Z,0.10
2023-01-11T09:11:54.868Z,0.35
2023-01-11T09:14:21.605Z,0.20
2023-01-11T09:16:48.799Z,0.20
2023-01-11T09:19:15.339Z,0.10
2023-01-11T09:21:41.877Z,0.10
2023-01-11T09:24:08.486Z,0.10
2023-01-11T09:26:35.753Z,0.17
2023-01-11T09:29:02.315Z,0.10
2023-01-11T09:31:28.908Z,0.10
2023-01-11T09:33:55.448Z,0.20
2023-01-11T09:36:23.476Z,0.10
2023-01-11T09:38:52.643Z,0.13
2023-01-11T09:41:28.999Z,0.20
2023-01-11T09:44:14.440Z,0.20
2023-01-11T09:46:42.895Z,0.20
2023-01-11T09:49:20.218Z,0.32
2023-01-11T09:51:46.741Z,0.40
2023-01-11T09:54:23.264Z,0.40
2023-01-11T09:56:54.777Z,0.60
2023-01-11T09:59:34.846Z,0.20
2023-01-11T10:02:12.197Z,0.60
2023-01-11T10:05:18.526Z,0.30
2023-01-11T10:07:53.725Z,0.20
2023-01-11T10:18:38.447Z,0.30
2023-01-11T10:19:47.821Z,0.38
2023-01-11T10:22:27.833Z,0.22
2023-01-11T10:24:56.315Z,0.30
2023-01-11T10:27:40.339Z,0.40
2023-01-11T10:30:41.965Z,0.30
2023-01-11T10:33:45.302Z,0.40
2023-01-11T10:36:39.535Z,0.50
2023-01-11T10:40:01.336Z,0.30
2023-01-11T10:42:29.829Z,0.10
2023-01-11T10:44:59.993Z,0.20
2023-01-11T10:47:30.429Z,0.20
2023-01-11T10:50:06.295Z,0.38
2023-01-11T10:52:47.868Z,0.40
2023-01-11T10:55:15.859Z,0.40
2023-01-11T10:58:04.952Z,0.30
2023-01-11T11:00:44.951Z,0.30
2023-01-11T11:03:26.582Z,0.22
2023-01-11T11:06:20.257Z,0.30
2023-01-11T11:09:08.244Z,0.38
2023-01-11T11:11:46.996Z,0.30
2023-01-11T11:14:16.884Z,0.30
2023-01-11T11:17:09.241Z,0.45
2023-01-11T11:19:35.679Z,0.30
2023-01-11T11:22:02.201Z,0.30
2023-01-11T11:24:48.298Z,0.47
2023-01-11T11:27:38.454Z,0.30
2023-01-11T11:30:05.410Z,0.30
2023-01-11T11:32:36.735Z,0.30
2023-01-11T11:35:04.020Z,0.25
2023-01-11T11:37:35.100Z,0.40
2023-01-11T11:40:01.577Z,0.38
2023-01-11T11:42:28.159Z,0.40
2023-01-11T11:45:09.941Z,0.40
2023-01-11T11:47:37.097Z,0.20
2023-01-11T11:50:27.367Z,0.32
2023-01-11T11:53:04.185Z,0.22
2023-01-11T11:55:32.365Z,0.30
2023-01-11T11:58:00.108Z,0.30
2023-01-11T12:00:30.907Z,0.22
2023-01-11T12:03:12.525Z,0.40
2023-01-11T12:05:39.039Z,0.30
2023-01-11T12:08:05.817Z,0.35
2023-01-11T12:10:32.322Z,0.30
2023-01-11T12:13:02.509Z,0.28
2023-01-11T12:15:32.958Z,0.20
2023-01-11T12:18:26.126Z,0.20
2023-01-11T12:20:52.616Z,0.40
2023-01-11T12:23:25.664Z,0.30
2023-01-11T12:26:16.097Z,0.47
2023-01-11T12:28:51.275Z,0.40
2023-01-11T12:31:51.637Z,0.35
2023-01-11T12:34:35.620Z,0.30
2023-01-11T12:37:27.001Z,0.50
2023-01-11T12:40:20.774Z,0.32
2023-01-11T12:43:12.020Z,0.52
2023-01-11T12:46:02.272Z,0.40
2023-01-11T12:48:38.157Z,0.30
2023-01-11T12:51:38.529Z,0.75
2023-01-11T12:54:42.693Z,0.60
2023-01-11T12:57:20.879Z,1.07
2023-01-11T13:00:06.193Z,1.70
2023-01-11T13:02:56.127Z,2.30
2023-01-11T13:05:48.238Z,3.58
2023-01-11T13:08:49.577Z,3.47
2023-01-11T13:11:43.359Z,3.63
2023-01-11T13:14:31.732Z,3.07
2023-01-11T13:17:25.951Z,3.38
2023-01-11T13:20:11.041Z,2.65
2023-01-11T13:22:40.252Z,3.10
2023-01-11T13:25:19.122Z,2.20
2023-01-11T13:27:45.588Z,2.78
2023-01-11T13:30:12.999Z,2.35
2023-01-11T13:32:40.122Z,2.28
2023-01-11T13:35:13.909Z,2.67
2023-01-11T13:37:43.021Z,2.45
2023-01-11T13:40:25.383Z,2.75
2023-01-11T13:43:07.075Z,2.35
2023-01-11T13:45:43.903Z,2.60
2023-01-11T13:48:18.324Z,2.35
2023-01-11T13:50:47.903Z,1.90
2023-01-11T13:53:36.898Z,2.47
2023-01-11T13:56:20.471Z,2.50
2023-01-11T13:58:58.073Z,3.43
2023-01-11T14:01:50.379Z,2.20
2023-01-11T14:04:27.625Z,2.45
2023-01-11T14:07:20.968Z,2.63
2023-01-11T14:10:04.769Z,2.13
2023-01-11T14:12:42.903Z,2.38
2023-01-11T14:15:26.358Z,2.75
2023-01-11T14:18:20.890Z,2.63
2023-01-11T14:20:50.763Z,2.38
2023-01-11T14:23:19.154Z,2.85
2023-01-11T14:25:54.344Z,2.80
2023-01-11T14:28:45.590Z,2.83
2023-01-11T14:31:39.957Z,2.80
2023-01-11T14:34:28.884Z,2.60
2023-01-11T14:36:55.240Z,3.03
2023-01-11T14:39:47.066Z,3.25
2023-01-11T14:42:51.319Z,2.60
2023-01-11T14:45:24.188Z,3.03
2023-01-11T14:48:15.645Z,2.60
2023-01-11T14:51:15.018Z,3.35
2023-01-11T14:53:45.857Z,2.75
2023-01-11T14:56:43.385Z,2.75
2023-01-11T14:59:24.494Z,2.83
2023-01-11T15:02:03.066Z,2.67
2023-01-11T15:04:33.619Z,2.65
2023-01-11T15:07:00.334Z,2.60
2023-01-11T15:09:49.234Z,2.53
2023-01-11T15:12:20.401Z,2.80
2023-01-11T15:14:54.208Z,2.70
2023-01-11T15:17:40.941Z,2.78
2023-01-11T15:20:11.408Z,3.13
2023-01-11T15:22:38.114Z,2.10
2023-01-11T15:25:26.596Z,2.83
2023-01-11T15:27:53.207Z,2.60
2023-01-11T15:30:28.924Z,2.55
2023-01-11T15:33:46.611Z,2.35
2023-01-11T15:36:13.177Z,2.40
2023-01-11T15:38:54.317Z,2.35
2023-01-11T15:42:03.153Z,2.30
2023-01-11T15:45:07.481Z,2.40
2023-01-11T15:47:52.549Z,2.63
2023-01-11T15:50:32.093Z,2.70
2023-01-11T15:53:29.141Z,2.85
2023-01-11T15:56:03.068Z,2.90
2023-01-11T15:58:52.447Z,2.95
2023-01-11T16:01:22.749Z,2.50
2023-01-11T16:04:10.003Z,2.47
2023-01-11T16:06:36.319Z,2.67
2023-01-11T16:09:30.246Z,2.60
2023-01-11T16:14:56.455Z,2.33
2023-01-11T16:17:23.162Z,2.60
2023-01-11T16:19:55.299Z,2.50
2023-01-11T16:22:26.268Z,2.67
2023-01-11T16:24:55.746Z,2.78
2023-01-11T16:27:29.833Z,2.88
2023-01-11T16:32:26.997Z,2.72
2023-01-11T16:34:53.703Z,3.00
2023-01-11T16:37:28.398Z,2.40
2023-01-11T16:40:17.641Z,2.70
2023-01-11T16:42:55.362Z,2.45
2023-01-11T16:45:41.299Z,2.78
2023-01-11T16:48:10.650Z,2.10
2023-01-11T16:50:37.148Z,2.50
2023-01-11T16:53:24.997Z,2.50
2023-01-11T16:56:05.349Z,2.70
2023-01-11T16:58:38.437Z,3.38
2023-01-11T17:01:09.826Z,2.47
2023-01-11T17:03:38.591Z,2.67
2023-01-11T17:06:08.110Z,3.05
2023-01-11T17:09:01.335Z,2.80
2023-01-11T17:11:27.700Z,2.95
2023-01-11T17:14:13.079Z,2.60
2023-01-11T17:16:41.426Z,2.42
2023-01-11T17:19:12.667Z,2.33
2023-01-11T17:21:39.141Z,2.72
2023-01-11T17:24:05.851Z,2.58
2023-01-11T17:26:37.314Z,2.92
2023-01-11T17:29:03.835Z,2.40
2023-01-11T17:31:32.219Z,2.50
2023-01-11T17:34:08.537Z,2.33
2023-01-11T17:36:35.045Z,2.40
2023-01-11T17:39:01.607Z,2.17
2023-01-11T17:41:46.874Z,2.05
2023-01-11T17:44:36.689Z,2.15
2023-01-11T17:47:04.780Z,2.42
2023-01-11T17:49:31.257Z,2.22
2023-01-11T17:51:59.836Z,2.10
2023-01-11T17:54:26.766Z,2.38
2023-01-11T17:56:58.410Z,2.45
2023-01-11T17:59:26.264Z,2.28
2023-01-11T18:02:02.752Z,2.30
2023-01-11T18:04:29.522Z,2.50
2023-01-11T18:07:04.700Z,2.20
2023-01-11T18:09:32.282Z,2.15
2023-01-11T18:12:12.057Z,2.28
2023-01-11T18:14:40.631Z,2.70
2023-01-11T18:17:35.095Z,2.03
2023-01-11T18:20:03.627Z,2.00
2023-01-11T18:22:30.762Z,2.50
2023-01-11T18:24:58.353Z,2.17
2023-01-11T18:27:32.293Z,1.75
2023-01-11T18:32:32.621Z,2.25
2023-01-11T18:34:59.090Z,1.63
2023-01-11T18:37:25.801Z,2.22
2023-01-11T18:39:52.801Z,2.10
2023-01-11T18:42:21.324Z,2.13
2023-01-11T18:44:49.370Z,2.25
2023-01-11T18:47:21.381Z,2.05
2023-01-11T18:49:48.598Z,2.17
2023-01-11T18:52:15.054Z,1.98
2023-01-11T18:54:41.694Z,1.90
2023-01-11T18:57:08.227Z,1.90
2023-01-11T18:59:34.713Z,1.70
2023-01-11T19:02:27.345Z,1.88
2023-01-11T19:04:54.690Z,1.98
2023-01-11T19:07:21.409Z,1.90
2023-01-11T19:09:47.948Z,1.95
2023-01-11T19:12:14.621Z,2.00
2023-01-11T19:14:41.142Z,1.67
2023-01-11T19:17:08.778Z,2.10
2023-01-11T19:19:35.392Z,2.30
2023-01-11T19:22:02.220Z,1.90
2023-01-11T19:24:28.727Z,1.92
2023-01-11T19:26:55.691Z,1.73
2023-01-11T19:29:24.577Z,1.90
2023-01-11T19:31:52.158Z,2.40
2023-01-11T19:34:18.991Z,2.53
2023-01-11T19:36:45.511Z,4.15
2023-01-11T19:39:12.158Z,3.38
2023-01-11T19:41:54.946Z,4.05
2023-01-11T19:44:22.265Z,4.05
2023-01-11T19:46:56.718Z,4.07
2023-01-11T19:49:27.064Z,4.30
2023-01-11T19:51:53.529Z,4.72
2023-01-11T19:54:21.523Z,4.82
2023-01-11T19:56:49.142Z,4.50
2023-01-11T19:59:15.779Z,4.43
2023-01-11T20:01:42.349Z,3.78
2023-01-11T20:04:08.916Z,4.20
2023-01-11T20:06:35.383Z,4.18
2023-01-11T20:09:01.845Z,3.90
2023-01-11T20:11:28.296Z,4.28
2023-01-11T20:13:54.772Z,4.10
2023-01-11T20:16:22.790Z,5.05
2023-01-11T20:18:56.089Z,4.60
2023-01-11T20:21:23.321Z,4.82
2023-01-11T20:23:49.782Z,4.43
2023-01-11T20:26:16.323Z,4.10
2023-01-11T20:28:53.343Z,3.70
2023-01-11T20:31:21.324Z,3.92
2023-01-11T20:33:47.851Z,4.03
2023-01-11T20:36:16.015Z,3.70
2023-01-11T20:38:42.820Z,3.47
2023-01-11T20:41:10.465Z,3.40
2023-01-11T20:43:40.240Z,3.47
2023-01-11T20:46:07.211Z,4.25
2023-01-11T20:48:35.645Z,4.50
2023-01-11T20:51:03.067Z,4.13
2023-01-11T20:53:29.585Z,4.30
2023-01-11T20:55:56.489Z,4.15
2023-01-11T20:58:23.128Z,4.00
2023-01-11T21:00:49.788Z,3.97
2023-01-11T21:03:19.858Z,3.20
2023-01-11T21:05:46.396Z,3.58
2023-01-11T21:08:12.867Z,3.88
2023-01-11T21:10:39.596Z,16.05
2023-01-11T21:13:06.836Z,18.25
2023-01-11T21:15:33.316Z,17.50
2023-01-11T21:17:59.760Z,13.27
2023-01-11T21:20:26.244Z,11.43
2023-01-11T21:22:52.709Z,11.63
2023-01-11T21:25:19.481Z,12.32
2023-01-11T21:27:45.949Z,11.23
2023-01-11T21:30:12.478Z,11.70
2023-01-11T21:32:39.078Z,11.50
2023-01-11T21:35:05.798Z,11.63
2023-01-11T21:37:32.234Z,10.25
2023-01-11T21:39:58.725Z,11.23
2023-01-11T21:42:25.185Z,9.10
2023-01-11T21:44:51.678Z,9.60
2023-01-11T21:47:19.593Z,9.40
2023-01-11T21:49:46.087Z,8.70
2023-01-11T21:52:12.536Z,8.25
2023-01-11T21:54:39.008Z,8.70
2023-01-11T21:57:05.485Z,8.45
2023-01-11T21:59:33.661Z,5.88
2023-01-11T22:02:00.460Z,6.68
2023-01-11T22:04:26.938Z,7.10
2023-01-11T22:06:58.084Z,6.97
2023-01-11T22:09:26.285Z,6.93
2023-01-11T22:11:52.822Z,6.57
2023-01-11T22:14:19.360Z,6.55
2023-01-11T22:16:45.844Z,6.50
2023-01-11T22:19:12.393Z,5.72
2023-01-11T22:21:38.913Z,6.78
2023-01-11T22:24:06.298Z,6.43
2023-01-11T22:26:35.677Z,5.97
2023-01-11T22:29:17.639Z,5.10
2023-01-11T22:31:50.741Z,5.40
2023-01-11T22:34:17.467Z,5.10
2023-01-11T22:36:44.154Z,4.90
2023-01-11T22:39:11.286Z,4.97
2023-01-11T22:41:39.870Z,4.80
2023-01-11T22:44:07.560Z,4.68
2023-01-11T22:46:34.013Z,4.68
2023-01-11T22:49:00.524Z,4.53
2023-01-11T22:51:27.074Z,4.38
2023-01-11T22:53:53.939Z,4.50
2023-01-11T22:56:22.139Z,3.90
2023-01-11T22:58:50.316Z,3.85
2023-01-11T23:01:24.405Z,4.15
2023-01-11T23:03:51.186Z,3.60
2023-01-11T23:06:19.459Z,3.10
2023-01-11T23:08:45.919Z,3.25
2023-01-11T23:11:40.049Z,3.60
2023-01-11T23:14:08.474Z,3.10
2023-01-11T23:16:35.107Z,3.30
2023-01-11T23:19:01.737Z,3.40
2023-01-11T23:21:28.270Z,3.13
2023-01-11T23:23:54.759Z,2.90
2023-01-11T23:26:21.607Z,2.90
2023-01-11T23:28:48.643Z,2.95
2023-01-11T23:31:24.859Z,2.60
2023-01-11T23:33:53.083Z,2.58
2023-01-11T23:36:20.556Z,2.70
2023-01-11T23:38:47.267Z,2.35
2023-01-11T23:41:36.503Z,2.83
2023-01-11T23:44:04.936Z,2.70
2023-01-11T23:47:03.579Z,2.22
2023-01-11T23:49:30.649Z,2.50
2023-01-11T23:51:57.209Z,2.53
2023-01-11T23:54:26.082Z,2.67
2023-01-11T23:56:52.566Z,2.72
2023-01-11T23:59:19.039Z,2.22
